N736TV KEKY-KEKY

Flight info

Callsign N736TV
Flight time N/A
Altitude 4000
Route KTCL KJFX
Aircraft C172/L-VGD/C

Departure

Time 2026-04-24 01:36
Airport Bessemer Airport (KEKY)

Arrival

Time N/A
Airport Bessemer Airport (KEKY)
Time Latitude Longitude Altitude Speed Heading
2026-04-24 01:23 33.31083 -86.92659 706 ft 0 kts 231°
2026-04-24 01:31 33.31082 -86.92660 706 ft 0 kts 231°
2026-04-24 01:32 33.31091 -86.92704 706 ft 9 kts 284°
2026-04-24 01:32 33.31050 -86.92777 706 ft 13 kts 229°
2026-04-24 01:32 33.30983 -86.92872 704 ft 15 kts 231°
2026-04-24 01:32 33.30924 -86.92960 705 ft 16 kts 228°
2026-04-24 01:33 33.30856 -86.93054 704 ft 12 kts 229°
2026-04-24 01:33 33.30812 -86.93117 704 ft 8 kts 231°
2026-04-24 01:33 33.30750 -86.93204 704 ft 17 kts 230°
2026-04-24 01:33 33.30684 -86.93303 702 ft 7 kts 245°
2026-04-24 01:34 33.30691 -86.93334 706 ft 2 kts 311°
2026-04-24 01:34 33.30692 -86.93336 701 ft 0 kts 311°
2026-04-24 01:35 33.30693 -86.93337 701 ft 2 kts 311°
2026-04-24 01:35 33.30733 -86.93362 704 ft 9 kts 10°
2026-04-24 01:35 33.30792 -86.93291 704 ft 20 kts 50°
2026-04-24 01:35 33.30998 -86.93000 706 ft 69 kts 49°
2026-04-24 01:36 33.31364 -86.92479 837 ft 85 kts 49°
2026-04-24 01:36 33.31751 -86.91940 1082 ft 82 kts 49°
2026-04-24 01:36 33.32150 -86.91435 1286 ft 85 kts 35°
2026-04-24 01:36 33.32719 -86.91338 1481 ft 86 kts 341°
2026-04-24 01:37 33.33122 -86.91819 1670 ft 89 kts 281°
2026-04-24 01:37 33.32963 -86.92557 1785 ft 99 kts 245°
2026-04-24 01:37 33.32635 -86.93315 1934 ft 100 kts 243°
2026-04-24 01:37 33.32293 -86.94030 2130 ft 99 kts 239°
2026-04-24 01:38 33.31899 -86.94706 2330 ft 96 kts 236°
2026-04-24 01:38 33.31528 -86.95351 2553 ft 93 kts 237°
2026-04-24 01:38 33.31077 -86.95886 2759 ft 92 kts 214°
2026-04-24 01:38 33.30581 -86.96363 2964 ft 91 kts 229°
2026-04-24 01:39 33.30369 -86.97053 3164 ft 90 kts 259°
2026-04-24 01:39 33.30230 -86.97780 3361 ft 89 kts 261°
2026-04-24 01:39 33.30119 -86.98509 3543 ft 85 kts 261°
2026-04-24 01:39 33.30033 -86.99156 3407 ft 78 kts 261°
2026-04-24 01:40 33.29937 -86.99811 3549 ft 82 kts 263°
2026-04-24 01:40 33.29846 -87.00499 3705 ft 85 kts 262°
2026-04-24 01:40 33.29756 -87.01208 3872 ft 87 kts 262°
2026-04-24 01:40 33.29664 -87.01930 3954 ft 93 kts 262°
2026-04-24 01:41 33.29565 -87.02736 3965 ft 104 kts 262°
2026-04-24 01:41 33.29454 -87.03615 3968 ft 110 kts 262°
2026-04-24 01:41 33.29338 -87.04536 3965 ft 113 kts 262°
2026-04-24 01:41 33.29219 -87.05477 3963 ft 115 kts 262°
2026-04-24 01:42 33.29099 -87.06425 3964 ft 116 kts 262°
2026-04-24 01:42 33.28979 -87.07377 3965 ft 116 kts 262°
2026-04-24 01:42 33.28858 -87.08331 3963 ft 116 kts 262°
2026-04-24 01:42 33.28739 -87.09281 3957 ft 113 kts 262°
2026-04-24 01:43 33.28622 -87.10196 3953 ft 111 kts 262°
2026-04-24 01:43 33.28512 -87.11071 3947 ft 102 kts 262°
2026-04-24 01:43 33.28409 -87.11887 3943 ft 97 kts 262°
2026-04-24 01:43 33.28310 -87.12665 3948 ft 93 kts 262°
2026-04-24 01:44 33.28214 -87.13416 3945 ft 90 kts 262°
2026-04-24 01:44 33.28122 -87.14147 3949 ft 88 kts 262°
2026-04-24 01:44 33.28030 -87.14870 3946 ft 88 kts 263°
2026-04-24 01:44 33.27937 -87.15592 3952 ft 89 kts 262°
2026-04-24 01:45 33.27843 -87.16332 3960 ft 91 kts 262°
2026-04-24 01:45 33.27748 -87.17087 3965 ft 93 kts 262°
2026-04-24 01:45 33.27650 -87.17855 3964 ft 94 kts 262°
2026-04-24 01:45 33.27551 -87.18633 3963 ft 95 kts 262°
2026-04-24 01:46 33.27451 -87.19418 3965 ft 96 kts 262°
2026-04-24 01:46 33.27351 -87.20210 3962 ft 97 kts 262°
2026-04-24 01:46 33.27251 -87.20993 3964 ft 97 kts 262°
2026-04-24 01:46 33.27150 -87.21789 3963 ft 98 kts 262°
2026-04-24 01:47 33.27047 -87.22593 3962 ft 98 kts 262°
2026-04-24 01:47 33.26944 -87.23396 3964 ft 98 kts 262°
2026-04-24 01:47 33.26842 -87.24203 3964 ft 98 kts 262°